Solnethnaya, Russia
Current Conditions -  °F | °C
As of 6:30 PM on Friday 24 Oct 2014 (Local Time) from UIUU Reporting Station
Broken Clouds Broken Clouds  
Wind Chill: 34°   Ceiling: 10000
Heat Index: 39°   Visibility: 6mi
Dew Point: 28°   Wind: 7mph
Humidity: 65%   Direction: 330°NNW
Pressure: 29.8"   Gusts: NA
Location:  54.03°N, 108.27°E
Report Text: UIUU 241030Z 33003MPS 9999 SCT033CB BKN100 04/M02 Q1009 NOSIGRMK QFE713/0950 26CLRD60
Loading
Personal Weather Stations






























Interactive Weather Map
Tropical Storm Tracking
New forecast layout! Learn more

10-Day Weather Forecast

Advertisements
Track Severe Weather on mobile